createdAt,value
2019-03-23T00:01:13.624Z,6.85
2019-03-23T00:03:44.600Z,6.83
2019-03-23T00:06:16.308Z,6.80
2019-03-23T00:08:47.164Z,5.53
2019-03-23T00:11:17.267Z,5.30
2019-03-23T00:13:47.776Z,5.30
2019-03-23T00:16:23.376Z,5.90
2019-03-23T00:18:59.295Z,6.13
2019-03-23T00:21:31.298Z,5.30
2019-03-23T00:24:01.284Z,5.95
2019-03-23T00:26:32.920Z,6.13
2019-03-23T00:29:02.870Z,6.97
2019-03-23T00:31:33.052Z,7.30
2019-03-23T00:34:03.809Z,7.17
2019-03-23T00:36:41.498Z,7.45
2019-03-23T00:39:06.568Z,6.70
2019-03-23T00:41:36.620Z,6.65
2019-03-23T00:44:08.376Z,7.30
2019-03-23T00:46:39.345Z,5.85
2019-03-23T00:49:12.086Z,6.25
2019-03-23T00:51:45.208Z,6.17
2019-03-23T00:54:16.000Z,4.78
2019-03-23T00:56:49.153Z,4.70
2019-03-23T00:59:19.320Z,5.03
2019-03-23T01:01:53.160Z,6.15
2019-03-23T01:04:28.960Z,5.92
2019-03-23T01:06:59.074Z,6.00
2019-03-23T01:09:29.199Z,6.00
2019-03-23T01:12:00.971Z,5.97
2019-03-23T01:14:30.652Z,5.60
2019-03-23T01:17:02.364Z,5.35
2019-03-23T01:19:32.324Z,5.03
2019-03-23T01:22:02.179Z,5.22
2019-03-23T01:24:37.680Z,4.90
2019-03-23T01:27:14.421Z,5.35
2019-03-23T01:29:45.220Z,5.83
2019-03-23T01:32:15.194Z,5.83
2019-03-23T01:34:45.285Z,5.85
2019-03-23T01:37:15.220Z,6.33
2019-03-23T01:39:47.436Z,6.12
2019-03-23T01:42:17.543Z,5.50
2019-03-23T01:44:47.652Z,6.75
2019-03-23T01:47:19.669Z,5.80
2019-03-23T01:49:50.484Z,5.85
2019-03-23T01:52:30.112Z,5.00
2019-03-23T01:55:01.003Z,5.60
2019-03-23T01:57:32.848Z,6.65
2019-03-23T02:00:03.255Z,6.25
2019-03-23T02:02:35.136Z,5.58
2019-03-23T02:05:07.825Z,6.95
2019-03-23T02:07:39.872Z,6.17
2019-03-23T02:10:12.300Z,5.35
2019-03-23T02:12:42.132Z,6.65
2019-03-23T02:15:14.304Z,6.10
2019-03-23T02:17:45.116Z,6.35
2019-03-23T02:20:16.318Z,7.17
2019-03-23T02:22:46.440Z,6.35
2019-03-23T02:25:16.539Z,6.33
2019-03-23T02:27:46.686Z,5.67
2019-03-23T02:30:16.609Z,5.83
2019-03-23T02:32:49.341Z,5.80
2019-03-23T02:35:20.307Z,6.22
2019-03-23T02:37:53.025Z,6.08
2019-03-23T02:40:23.006Z,5.35
2019-03-23T02:42:58.453Z,5.60
2019-03-23T02:45:35.338Z,6.67
2019-03-23T02:48:05.542Z,6.17
2019-03-23T02:50:42.886Z,5.70
2019-03-23T02:53:12.879Z,6.55
2019-03-23T02:55:42.745Z,5.80
2019-03-23T02:58:15.062Z,6.15
2019-03-23T03:00:44.744Z,5.75
2019-03-23T03:03:17.466Z,5.97
2019-03-23T03:05:47.161Z,7.55
2019-03-23T03:08:16.865Z,6.17
2019-03-23T03:10:46.859Z,5.75
2019-03-23T03:13:16.714Z,5.05
2019-03-23T03:15:47.693Z,6.58
2019-03-23T03:18:18.464Z,6.30
2019-03-23T03:20:55.214Z,6.30
2019-03-23T03:23:25.067Z,6.87
2019-03-23T03:25:57.579Z,5.60
2019-03-23T03:28:27.685Z,6.87
2019-03-23T03:30:58.758Z,5.40
2019-03-23T03:33:30.589Z,6.92
2019-03-23T03:36:00.546Z,6.05
2019-03-23T03:38:31.575Z,6.60
2019-03-23T03:41:05.757Z,6.15
2019-03-23T03:43:35.858Z,6.58
2019-03-23T03:46:11.653Z,6.75
2019-03-23T03:48:41.340Z,7.20
2019-03-23T03:51:12.987Z,7.50
2019-03-23T03:53:43.960Z,7.72
2019-03-23T03:56:16.010Z,7.70
2019-03-23T03:58:46.462Z,7.30
2019-03-23T04:01:16.301Z,7.17
2019-03-23T04:03:53.154Z,7.35
2019-03-23T04:06:24.079Z,6.37
2019-03-23T04:09:02.221Z,7.60
2019-03-23T04:11:33.204Z,6.90
2019-03-23T04:14:03.158Z,9.80
2019-03-23T04:16:34.168Z,8.35
2019-03-23T04:19:14.226Z,8.48
2019-03-23T04:21:45.297Z,7.30
2019-03-23T04:24:19.376Z,9.05
2019-03-23T04:26:50.038Z,8.40
2019-03-23T04:29:19.867Z,7.58
2019-03-23T04:31:49.835Z,6.97
2019-03-23T04:34:22.341Z,6.53
2019-03-23T04:36:55.056Z,7.72
2019-03-23T04:39:27.204Z,8.18
2019-03-23T04:41:59.208Z,7.25
2019-03-23T04:44:29.577Z,6.97
2019-03-23T04:47:00.213Z,8.08
2019-03-23T04:49:30.176Z,9.08
2019-03-23T04:52:02.237Z,8.83
2019-03-23T04:54:32.064Z,9.30
2019-03-23T04:57:02.772Z,8.45
2019-03-23T04:59:40.496Z,9.05
2019-03-23T05:02:10.769Z,9.75
2019-03-23T05:04:40.867Z,8.65
2019-03-23T05:07:10.700Z,10.53
2019-03-23T05:09:40.504Z,9.00
2019-03-23T05:12:10.200Z,9.80
2019-03-23T05:14:39.924Z,9.30
2019-03-23T05:17:10.817Z,9.43
2019-03-23T05:19:47.084Z,10.58
2019-03-23T05:22:17.856Z,10.35
2019-03-23T05:24:47.813Z,10.63
2019-03-23T05:27:18.875Z,10.70
2019-03-23T05:29:49.927Z,10.10
2019-03-23T05:32:19.776Z,11.15
2019-03-23T05:34:50.765Z,10.28
2019-03-23T05:37:21.573Z,10.78
2019-03-23T05:39:52.548Z,11.57
2019-03-23T05:42:23.569Z,10.55
2019-03-23T05:45:00.445Z,11.25
2019-03-23T05:47:30.293Z,11.57
2019-03-23T05:50:01.229Z,11.08
2019-03-23T05:52:31.326Z,11.90
2019-03-23T05:55:01.461Z,11.90
2019-03-23T05:57:31.572Z,10.25
2019-03-23T06:00:05.655Z,11.12
2019-03-23T06:02:35.760Z,11.80
2019-03-23T06:05:06.859Z,11.35
2019-03-23T06:07:36.882Z,13.45
2019-03-23T06:10:10.829Z,12.73
2019-03-23T06:12:42.437Z,12.50
2019-03-23T06:15:12.685Z,12.55
2019-03-23T06:17:42.694Z,12.80
2019-03-23T06:20:13.882Z,11.80
2019-03-23T06:22:44.268Z,12.20
2019-03-23T06:25:15.113Z,12.60
2019-03-23T06:27:44.833Z,12.40
2019-03-23T06:30:18.663Z,13.15
2019-03-23T06:32:54.557Z,13.67
2019-03-23T06:35:25.648Z,13.25
2019-03-23T06:37:56.704Z,14.60
2019-03-23T06:40:26.827Z,14.93
2019-03-23T06:43:02.417Z,14.73
2019-03-23T06:45:32.149Z,15.50
2019-03-23T06:48:01.825Z,17.93
2019-03-23T06:50:31.525Z,18.10
2019-03-23T06:53:01.548Z,18.77
2019-03-23T06:55:31.604Z,18.27
2019-03-23T06:58:01.694Z,19.83
2019-03-23T07:00:31.628Z,17.77
2019-03-23T07:03:01.342Z,17.87
2019-03-23T07:05:31.041Z,17.40
2019-03-23T07:08:00.929Z,18.07
2019-03-23T07:10:30.606Z,17.93
2019-03-23T07:13:06.325Z,16.60
2019-03-23T07:15:36.021Z,17.37
2019-03-23T07:18:12.722Z,18.53
2019-03-23T07:20:43.518Z,19.47
2019-03-23T07:23:13.474Z,19.03
2019-03-23T07:25:43.587Z,18.57
2019-03-23T07:28:15.666Z,19.60
2019-03-23T07:30:45.766Z,18.67
2019-03-23T07:33:15.597Z,21.37
2019-03-23T07:35:45.321Z,19.83
2019-03-23T07:38:15.270Z,19.67
2019-03-23T07:40:48.398Z,17.83
2019-03-23T07:43:19.186Z,18.20
2019-03-23T07:45:49.214Z,19.00
2019-03-23T07:48:19.070Z,17.80
2019-03-23T07:50:51.281Z,16.10
2019-03-23T07:53:22.165Z,18.23
2019-03-23T07:55:57.873Z,17.07
2019-03-23T07:58:30.028Z,17.20
2019-03-23T08:01:00.112Z,16.40
2019-03-23T08:03:30.218Z,18.37
2019-03-23T08:06:00.384Z,15.17
2019-03-23T08:08:35.975Z,17.23
2019-03-23T08:11:05.766Z,17.23
2019-03-23T08:13:35.758Z,17.97
2019-03-23T08:16:05.877Z,17.87
2019-03-23T08:18:35.783Z,17.00
2019-03-23T08:21:06.774Z,16.93
2019-03-23T08:23:39.753Z,16.47
2019-03-23T08:26:15.700Z,16.27
2019-03-23T08:28:46.684Z,17.83
2019-03-23T08:31:16.484Z,16.83
2019-03-23T08:33:52.289Z,19.03
2019-03-23T08:36:22.258Z,18.07
2019-03-23T08:38:52.389Z,17.37
2019-03-23T08:41:22.236Z,17.50
2019-03-23T08:44:01.413Z,16.90
2019-03-23T08:46:31.566Z,17.27
2019-03-23T08:49:01.669Z,15.80
2019-03-23T08:51:31.776Z,18.60
2019-03-23T08:54:02.564Z,17.70
2019-03-23T08:56:41.465Z,17.70
2019-03-23T08:59:17.789Z,17.17
2019-03-23T09:01:50.914Z,19.77
2019-03-23T09:04:20.761Z,17.67
2019-03-23T09:06:50.861Z,18.83
2019-03-23T09:09:30.037Z,18.93
2019-03-23T09:12:00.756Z,17.70
2019-03-23T09:14:37.161Z,17.97
2019-03-23T09:17:08.673Z,18.50
2019-03-23T09:19:39.500Z,19.57
2019-03-23T09:22:13.501Z,19.87
2019-03-23T09:24:45.487Z,19.30
2019-03-23T09:27:15.601Z,20.53
2019-03-23T09:29:45.441Z,18.67
2019-03-23T09:32:15.209Z,21.23
2019-03-23T09:34:46.787Z,18.77
2019-03-23T09:37:16.817Z,20.83
2019-03-23T09:39:46.561Z,19.07
2019-03-23T09:42:16.545Z,21.27
2019-03-23T09:44:46.646Z,21.63
2019-03-23T09:47:16.821Z,19.70
2019-03-23T09:49:47.920Z,22.63
2019-03-23T09:52:17.747Z,19.83
2019-03-23T09:54:48.669Z,21.87
2019-03-23T09:57:18.501Z,21.30
2019-03-23T09:59:48.200Z,19.83
2019-03-23T10:02:17.893Z,21.10
2019-03-23T10:04:47.599Z,19.73
2019-03-23T10:07:17.325Z,21.80
2019-03-23T10:09:47.285Z,20.77
2019-03-23T10:12:17.397Z,21.70
2019-03-23T10:14:47.513Z,20.17
2019-03-23T10:17:17.617Z,22.37
2019-03-23T10:19:47.465Z,21.10
2019-03-23T10:22:17.436Z,21.97
2019-03-23T10:24:47.542Z,22.90
2019-03-23T10:27:17.469Z,22.93
2019-03-23T10:29:47.481Z,21.87
2019-03-23T10:32:18.477Z,23.40
2019-03-23T10:34:58.658Z,23.10
2019-03-23T10:37:28.599Z,21.70
2019-03-23T10:39:58.298Z,23.00
2019-03-23T10:42:28.221Z,21.10
2019-03-23T10:45:01.316Z,21.20
2019-03-23T10:47:31.149Z,23.57
2019-03-23T10:50:01.206Z,22.63
2019-03-23T10:52:37.421Z,22.20
2019-03-23T10:55:14.462Z,23.60
2019-03-23T10:57:50.264Z,21.70
2019-03-23T11:00:20.245Z,18.33
2019-03-23T11:02:50.361Z,17.30
2019-03-23T11:05:20.540Z,16.23
2019-03-23T11:07:50.657Z,15.87
2019-03-23T11:10:20.565Z,15.30
2019-03-23T11:12:50.560Z,17.53
2019-03-23T11:15:20.689Z,16.20
2019-03-23T11:17:51.681Z,17.53
2019-03-23T11:20:37.174Z,16.93
2019-03-23T11:23:26.614Z,15.10
2019-03-23T11:25:59.810Z,16.40
2019-03-23T11:28:29.640Z,15.93
2019-03-23T11:31:02.861Z,14.40
2019-03-23T11:33:32.977Z,13.50
2019-03-23T11:36:09.064Z,13.83
2019-03-23T11:38:58.505Z,15.63
2019-03-23T11:41:34.681Z,14.30
2019-03-23T11:44:05.757Z,14.70
2019-03-23T11:46:35.865Z,15.53
2019-03-23T11:49:06.035Z,16.33
2019-03-23T11:51:37.821Z,15.63
2019-03-23T11:54:07.521Z,16.90
2019-03-23T11:56:37.258Z,16.07
2019-03-23T11:59:26.582Z,16.00
2019-03-23T12:01:56.429Z,15.20
2019-03-23T12:04:27.223Z,15.13
2019-03-23T12:06:57.045Z,15.07
2019-03-23T12:09:28.165Z,15.70
2019-03-23T12:11:59.813Z,16.03
2019-03-23T12:14:29.929Z,15.40
2019-03-23T12:16:59.789Z,14.20
2019-03-23T12:19:31.481Z,14.03
2019-03-23T12:22:01.580Z,15.80
2019-03-23T12:24:31.713Z,15.10
2019-03-23T12:27:03.341Z,15.00
2019-03-23T12:29:33.301Z,15.13
2019-03-23T12:32:22.773Z,15.07
2019-03-23T12:34:52.881Z,15.83
2019-03-23T12:37:23.677Z,15.57
2019-03-23T12:39:53.386Z,16.33
2019-03-23T12:42:23.357Z,15.50
2019-03-23T12:44:53.490Z,15.30
2019-03-23T12:47:23.594Z,16.00
2019-03-23T12:49:59.201Z,14.37
2019-03-23T12:52:31.086Z,16.33
2019-03-23T12:55:01.190Z,16.57
2019-03-23T12:57:32.061Z,16.57
2019-03-23T13:00:02.021Z,16.07
2019-03-23T13:02:35.377Z,16.30
2019-03-23T13:05:07.769Z,16.20
2019-03-23T13:07:37.617Z,15.50
2019-03-23T13:10:12.689Z,15.90
2019-03-23T13:12:42.801Z,15.07
2019-03-23T13:15:17.936Z,16.07
2019-03-23T13:17:48.054Z,15.93
2019-03-23T13:20:19.942Z,16.13
2019-03-23T13:22:49.658Z,16.40
2019-03-23T13:25:19.626Z,16.80
2019-03-23T13:27:49.477Z,16.57
2019-03-23T13:30:25.199Z,15.13
2019-03-23T13:32:55.034Z,16.37
2019-03-23T13:35:29.713Z,17.97
2019-03-23T13:38:00.685Z,18.00
2019-03-23T13:40:30.808Z,15.00
2019-03-23T13:43:03.758Z,16.80
2019-03-23T13:45:42.356Z,16.70
2019-03-23T13:48:05.065Z,17.43
2019-03-23T13:50:35.038Z,15.00
2019-03-23T13:53:05.813Z,15.90
2019-03-23T13:55:41.825Z,16.17
2019-03-23T13:58:15.617Z,16.33
2019-03-23T14:00:46.689Z,17.13
2019-03-23T14:03:16.521Z,17.57
2019-03-23T14:05:47.461Z,16.90
2019-03-23T14:08:19.897Z,16.10
2019-03-23T14:10:55.848Z,16.60
2019-03-23T14:13:27.738Z,16.70
2019-03-23T14:15:57.105Z,15.50
2019-03-23T14:18:27.713Z,14.97
2019-03-23T14:20:57.677Z,16.53
2019-03-23T14:23:33.645Z,15.70
2019-03-23T14:26:03.750Z,16.30
2019-03-23T14:28:37.630Z,16.30
2019-03-23T14:31:07.596Z,16.10
2019-03-23T14:33:37.716Z,17.73
2019-03-23T14:36:08.404Z,15.63
2019-03-23T14:38:45.048Z,17.57
2019-03-23T14:41:15.945Z,16.17
2019-03-23T14:43:46.739Z,15.90
2019-03-23T14:46:16.423Z,18.00
2019-03-23T14:48:47.097Z,16.60
2019-03-23T14:51:16.789Z,18.60
2019-03-23T14:53:48.701Z,17.77
2019-03-23T14:56:18.545Z,16.20
2019-03-23T14:58:50.213Z,17.93
2019-03-23T15:01:20.233Z,15.97
2019-03-23T15:03:56.217Z,18.27
2019-03-23T15:06:27.952Z,16.87
2019-03-23T15:08:57.644Z,16.20
2019-03-23T15:11:33.270Z,17.97
2019-03-23T15:14:03.274Z,18.50
2019-03-23T15:16:33.390Z,18.23
2019-03-23T15:19:04.432Z,18.67
2019-03-23T15:21:34.265Z,17.70
2019-03-23T15:24:04.305Z,18.47
2019-03-23T15:26:34.537Z,18.63
2019-03-23T15:29:07.645Z,20.93
2019-03-23T15:31:37.613Z,19.60
2019-03-23T15:34:08.257Z,20.77
2019-03-23T15:36:38.313Z,20.30
2019-03-23T15:39:08.808Z,25.00
2019-03-23T15:41:38.789Z,20.77
2019-03-23T15:44:09.057Z,21.23
2019-03-23T15:46:38.901Z,20.60
2019-03-23T15:49:08.865Z,20.90
2019-03-23T15:51:53.705Z,19.70
2019-03-23T15:54:23.935Z,20.47
2019-03-23T15:56:54.213Z,24.37
2019-03-23T15:59:24.337Z,22.33
2019-03-23T16:01:55.493Z,30.63
2019-03-23T16:04:27.577Z,33.73
2019-03-23T16:06:57.681Z,26.13
2019-03-23T16:09:27.909Z,27.83
2019-03-23T16:11:57.782Z,33.93
2019-03-23T16:14:31.425Z,40.40
2019-03-23T16:17:01.574Z,23.50
2019-03-23T16:19:31.681Z,29.70
2019-03-23T16:22:07.473Z,23.10
2019-03-23T16:24:43.437Z,22.40
2019-03-23T16:27:13.574Z,21.97
2019-03-23T16:29:43.709Z,39.23
2019-03-23T16:32:15.437Z,33.10
2019-03-23T16:34:54.976Z,27.83
2019-03-23T16:37:24.905Z,34.90
2019-03-23T16:40:09.517Z,27.30
2019-03-23T16:42:45.651Z,60.13
2019-03-23T16:45:14.335Z,19.93
2019-03-23T16:47:44.473Z,19.63
2019-03-23T16:50:15.573Z,21.60
2019-03-23T16:52:45.693Z,21.30
2019-03-23T16:55:15.541Z,20.30
2019-03-23T16:57:45.513Z,21.73
2019-03-23T17:00:17.650Z,20.00
2019-03-23T17:02:49.557Z,21.10
2019-03-23T17:05:20.397Z,21.93
2019-03-23T17:07:51.329Z,21.53
2019-03-23T17:10:21.625Z,19.53
2019-03-23T17:12:55.585Z,20.13
2019-03-23T17:15:44.043Z,20.37
2019-03-23T17:18:16.114Z,19.60
2019-03-23T17:20:47.446Z,19.40
2019-03-23T17:23:17.357Z,18.53
2019-03-23T17:25:47.069Z,17.77
2019-03-23T17:28:17.765Z,20.67
2019-03-23T17:30:47.804Z,20.50
2019-03-23T17:33:17.649Z,23.90
2019-03-23T17:35:48.273Z,19.90
2019-03-23T17:38:18.011Z,20.97
2019-03-23T17:40:47.726Z,21.80
2019-03-23T17:43:17.581Z,23.20
2019-03-23T17:45:47.306Z,23.00
2019-03-23T17:48:17.011Z,20.47
2019-03-23T17:50:46.999Z,18.60
2019-03-23T17:53:16.846Z,17.53
2019-03-23T17:55:46.879Z,19.53
2019-03-23T17:58:22.855Z,17.80
2019-03-23T18:01:00.018Z,17.90
2019-03-23T18:03:30.072Z,17.30
2019-03-23T18:06:06.143Z,17.10
2019-03-23T18:08:46.225Z,18.87
2019-03-23T18:11:16.058Z,20.70
2019-03-23T18:13:46.041Z,20.53
2019-03-23T18:16:15.878Z,20.13
2019-03-23T18:18:45.923Z,19.40
2019-03-23T18:21:15.789Z,16.13
2019-03-23T18:23:45.847Z,16.33
2019-03-23T18:26:15.733Z,15.60
2019-03-23T18:28:45.695Z,14.17
2019-03-23T18:31:15.557Z,13.80
2019-03-23T18:33:47.655Z,15.17
2019-03-23T18:36:24.518Z,13.30
2019-03-23T18:38:54.477Z,15.23
2019-03-23T18:41:24.357Z,10.87
2019-03-23T18:43:57.005Z,12.20
2019-03-23T18:46:27.241Z,11.70
2019-03-23T18:48:57.355Z,11.00
2019-03-23T18:51:33.314Z,11.50
2019-03-23T18:54:09.613Z,13.67
2019-03-23T18:56:41.693Z,12.33
2019-03-23T18:59:11.878Z,12.50
2019-03-23T19:01:44.667Z,11.57
2019-03-23T19:04:14.505Z,12.93
2019-03-23T19:06:48.511Z,12.33
2019-03-23T19:09:39.953Z,13.50
2019-03-23T19:12:10.091Z,13.57
2019-03-23T19:14:46.909Z,12.03
2019-03-23T19:17:17.721Z,13.53
2019-03-23T19:19:48.655Z,13.00
2019-03-23T19:22:28.030Z,12.20
2019-03-23T19:25:15.197Z,13.40
2019-03-23T19:27:37.277Z,11.60
2019-03-23T19:30:08.856Z,10.87
2019-03-23T19:32:39.759Z,10.73
2019-03-23T19:35:15.289Z,15.77
2019-03-23T19:37:48.289Z,15.57
2019-03-23T19:40:18.421Z,10.73
2019-03-23T19:42:54.031Z,12.10
2019-03-23T19:45:24.272Z,16.83
2019-03-23T19:47:55.022Z,23.30
2019-03-23T19:50:37.154Z,19.97
2019-03-23T19:53:08.935Z,19.83
2019-03-23T19:55:45.888Z,19.60
2019-03-23T19:58:15.754Z,18.60
2019-03-23T20:00:54.715Z,16.27
2019-03-23T20:03:24.821Z,18.00
2019-03-23T20:05:54.918Z,18.27
2019-03-23T20:08:25.658Z,19.50
2019-03-23T20:10:55.801Z,20.70
2019-03-23T20:13:25.942Z,22.20
2019-03-23T20:15:56.681Z,23.87
2019-03-23T20:18:32.519Z,22.20
2019-03-23T20:21:02.646Z,20.43
2019-03-23T20:23:38.993Z,20.73
2019-03-23T20:26:09.097Z,22.40
2019-03-23T20:28:39.203Z,21.23
2019-03-23T20:31:10.513Z,21.57
2019-03-23T20:33:40.613Z,18.00
2019-03-23T20:36:10.485Z,17.97
2019-03-23T20:38:50.146Z,16.90
2019-03-23T20:41:30.341Z,15.80
2019-03-23T20:44:09.156Z,15.10
2019-03-23T20:46:33.305Z,13.80
2019-03-23T20:49:03.145Z,13.33
2019-03-23T20:51:34.024Z,15.37
2019-03-23T20:54:05.293Z,11.87
2019-03-23T20:56:35.398Z,14.03
2019-03-23T20:59:13.221Z,13.90
2019-03-23T21:01:43.066Z,14.80
2019-03-23T21:04:13.059Z,14.77
2019-03-23T21:06:43.164Z,15.50
2019-03-23T21:09:13.251Z,16.57
2019-03-23T21:11:43.437Z,16.00
2019-03-23T21:14:20.106Z,16.67
2019-03-23T21:16:47.221Z,17.30
2019-03-23T21:19:18.065Z,18.40
2019-03-23T21:21:48.166Z,16.33
2019-03-23T21:24:28.535Z,14.87
2019-03-23T21:26:58.387Z,14.60
2019-03-23T21:29:28.097Z,15.70
2019-03-23T21:31:58.150Z,17.30
2019-03-23T21:34:27.981Z,19.10
2019-03-23T21:36:57.973Z,17.03
2019-03-23T21:39:27.810Z,16.10
2019-03-23T21:41:59.663Z,18.23
2019-03-23T21:44:31.450Z,18.80
2019-03-23T21:47:02.692Z,16.60
2019-03-23T21:49:34.913Z,16.60
2019-03-23T21:52:13.709Z,14.90
2019-03-23T21:54:43.695Z,16.20
2019-03-23T21:57:13.790Z,17.53
2019-03-23T21:59:43.921Z,15.40
2019-03-23T22:02:14.029Z,17.90
2019-03-23T22:04:44.128Z,16.87
2019-03-23T22:07:14.245Z,18.50
2019-03-23T22:09:44.097Z,17.40
2019-03-23T22:12:14.075Z,16.60
2019-03-23T22:14:43.905Z,17.20
2019-03-23T22:17:13.941Z,15.60
2019-03-23T22:19:51.839Z,19.67
2019-03-23T22:22:27.976Z,17.40
2019-03-23T22:24:58.481Z,15.70
2019-03-23T22:27:28.403Z,17.90
2019-03-23T22:29:58.434Z,21.17
2019-03-23T22:32:28.269Z,18.63
2019-03-23T22:35:00.882Z,17.37
2019-03-23T22:37:30.853Z,16.07
2019-03-23T22:40:00.969Z,19.00
2019-03-23T22:42:30.817Z,18.03
2019-03-23T22:45:00.531Z,15.50
2019-03-23T22:47:30.502Z,15.93
2019-03-23T22:50:01.448Z,16.80
2019-03-23T22:52:31.429Z,20.00
2019-03-23T22:55:02.482Z,18.07
2019-03-23T22:57:32.595Z,18.97
2019-03-23T23:00:02.438Z,19.02
2019-03-23T23:02:32.407Z,20.37
2019-03-23T23:05:02.262Z,20.45
2019-03-23T23:07:32.945Z,21.68
2019-03-23T23:10:09.395Z,22.85
2019-03-23T23:12:39.501Z,20.83
2019-03-23T23:15:21.738Z,21.57
2019-03-23T23:17:58.856Z,21.30
2019-03-23T23:20:28.969Z,23.12
2019-03-23T23:23:01.061Z,23.23
2019-03-23T23:25:33.101Z,26.10
2019-03-23T23:28:05.359Z,24.93
2019-03-23T23:30:37.355Z,28.13
2019-03-23T23:33:07.313Z,29.23
2019-03-23T23:35:38.201Z,36.05
2019-03-23T23:38:08.329Z,36.10
2019-03-23T23:40:38.177Z,35.10
2019-03-23T23:43:09.821Z,38.50
2019-03-23T23:45:45.170Z,34.80
2019-03-23T23:48:16.041Z,34.90
2019-03-23T23:50:45.978Z,34.50
2019-03-23T23:53:15.762Z,37.73
2019-03-23T23:55:45.842Z,35.30
2019-03-23T23:58:15.737Z,31.87
